KFAF/FAF METAR and TAF weather

Enter ICAO airport designator
Station Type Date Time Source
KFAF METAR 2019/08/20 08:56 UTC NOAA

KFAF 200856Z AUTO 23005KT 10SM CLR 24/19 A3004 RMK AO2 SLP176 T02420186 53003 $


Station Type Date Time Source
KFAF Decoded METAR 2019/08/20 08:56 UTC NOAA

Fort Eustis / Felker, VA, United States (KFAF) 37-08N 076-37W
Aug 20, 2019 - 04:56 AM EDT / 2019.08.20 0856 UTC
Wind: from the SW (230 degrees) at 6 MPH (5 KT):0
Visibility: 10 mile(s):0
Sky conditions: clear
Temperature: 75.6 F (24.2 C)
Dew Point: 65.5 F (18.6 C)
Relative Humidity: 70%
Pressure (altimeter): 30.04 in. Hg (1017 hPa)
Pressure tendency: 0.01 inches (0.3 hPa) higher than three hours ago
ob: KFAF 200856Z AUTO 23005KT 10SM CLR 24/19 A3004 RMK AO2 SLP176 T02420186 53003
cycle: 9

Station Type Date Time Source
KFAF TAF 2019/08/19 18:39 UTC NOAA

TAF KFAF 191800Z 1918/2024 21006KT 9999 FEW030 QNH2996INS
BECMG 2012/2013 VRB06KT 9999 FEW020 BKN050 QNH2995INS
BECMG 2019/2020 22012KT 9000 -SHRA BKN050 QNH3001INS
TEMPO 2020/2024 VRB15G25KT 8000 -TSRA BKN050CB TX34/1919Z TN24/2009Z LAST NO
AMDS AFT 2003 NEXT 2010

Example: see airport list